Latest Weather Observations for Flinders Island Airport

IDT60801

Issued at 10:01 pm EST Sunday 2 August 2015 (issued every 30 minutes, with the page automatically refreshed every 10 minutes)

About weather observations | Map of weather stations | Latest weather observations for TAS | Other Formats
Station Details ID: 099005 Name: FLINDERS ISLAND AIRPORT Lat: -40.09 Lon: 148.00 Height: 9.0 m
Data from the previous 72 hours. | See also: Recent months at Flinders Island Airport
Date/Time
EST
Temp
°C
App
Temp
°C
Dew
Point
Rel
Hum
%
Delta-T
°C
Wind Press
QNH
hPa
Press
MSL
hPa
Rain
since 9 am
mm
Dir
 
Spd
km/h
Gust
km/h
Spd
kts
Gust
kts
02/10:00pm 8.2 -0.6 5.5 83 1.2 WNW 41 63 22 34 1003.6 1003.6 1.6
02/09:59pm 8.1 -1.1 5.6 84 1.1 WNW 43 63 23 34 1003.6 1003.6 1.6
02/09:56pm 8.1 -2.4 5.7 85 1.1 WNW 50 76 27 41 1003.7 1003.7 1.6
02/09:50pm 8.2 -2.7 5.5 83 1.2 WNW 52 76 28 41 1003.9 1003.9 1.6
02/09:49pm 8.3 -2.6 5.4 82 1.3 WNW 52 76 28 41 1003.8 1003.8 1.6
02/09:48pm 8.4 -2.2 5.3 81 1.4 WNW 50 76 27 41 1003.8 1003.8 1.6
02/09:41pm 9.2 0.2 4.8 74 2.0 WNW 41 59 22 32 1003.6 1003.6 1.6
02/09:30pm 9.6 0.0 3.4 65 2.7 WNW 43 56 23 30 1003.5 1003.5 1.6
02/09:00pm 9.7 0.8 3.2 64 2.8 WNW 39 57 21 31 1004.2 1004.2 1.6
02/08:55pm 9.6 0.8 3.8 67 2.5 WNW 39 57 21 31 1004.2 1004.2 1.6
02/08:30pm 9.6 0.9 4.0 68 2.5 WNW 39 56 21 30 1004.2 1004.2 1.6
02/08:19pm 9.7 0.9 3.7 66 2.6 WNW 39 57 21 31 1004.0 1004.0 1.6
02/08:00pm 9.6 -0.5 4.0 68 2.5 W 46 57 25 31 1004.3 1004.3 1.6
02/07:30pm 9.3 -1.0 4.5 72 2.1 W 48 59 26 32 1004.4 1004.4 1.6
02/07:02pm 9.1 -0.6 3.9 70 2.3 W 44 63 24 34 1004.3 1004.3 1.6
02/07:00pm 9.0 -0.6 4.2 72 2.1 W 44 57 24 31 1004.2 1004.2 1.6
02/06:45pm 9.7 -1.1 4.1 68 2.5 W 50 69 27 37 1004.0 1004.0 1.6
02/06:30pm 9.7 0.0 4.1 68 2.5 WNW 44 61 24 33 1004.0 1004.0 1.6
02/06:06pm 9.5 0.9 4.7 72 2.1 WNW 39 57 21 31 1003.5 1003.5 1.6
02/06:00pm 9.4 0.4 4.8 73 2.1 WNW 41 56 22 30 1003.7 1003.7 1.6
02/05:30pm 9.0 0.0 4.4 73 2.0 WNW 41 50 22 27 1003.6 1003.6 1.6
02/05:00pm 8.9 1.0 4.5 74 2.0 W 35 46 19 25 1003.4 1003.4 1.6
02/04:30pm 9.0 -0.9 4.8 75 1.9 WSW 46 56 25 30 1003.2 1003.2 1.6
02/04:16pm 9.0 -2.3 5.4 78 1.6 W 54 63 29 34 1003.2 1003.2 1.6
02/04:06pm 9.1 -1.7 6.2 82 1.3 W 52 70 28 38 1002.9 1002.9 1.4
02/04:04pm 9.3 -0.9 6.9 85 1.1 W 50 70 27 38 1002.9 1002.9 1.4
02/04:00pm 9.2 -0.5 7.5 89 0.8 W 48 59 26 32 1002.8 1002.8 1.4
02/03:34pm 8.9 -1.6 7.2 89 0.8 WNW 52 74 28 40 1002.5 1002.5 1.0
02/03:30pm 8.6 -3.4 6.6 87 0.9 WNW 59 95 32 51 1002.5 1002.5 0.8
02/03:28pm 8.7 -3.4 6.3 85 1.1 WNW 59 95 32 51 1002.4 1002.4 0.8
02/03:23pm 9.2 -2.3 6.3 82 1.3 WNW 56 95 30 51 1002.4 1002.4 0.8
02/03:22pm 9.5 -1.6 6.4 81 1.4 WNW 54 95 29 51 1002.3 1002.3 0.6
02/03:00pm 10.8 0.5 6.4 74 2.1 NW 50 70 27 38 1001.9 1001.9 0.0
02/02:30pm 11.1 1.1 6.3 72 2.2 NW 48 67 26 36 1002.3 1002.3 0.0
02/02:00pm 11.1 0.7 6.0 71 2.4 NW 50 72 27 39 1002.3 1002.3 0.0
02/01:32pm 11.2 2.2 6.3 72 2.3 NW 43 61 23 33 1002.9 1002.9 0.0
02/01:30pm 11.3 2.7 6.4 72 2.3 NW 41 56 22 30 1003.0 1003.0 0.0
02/01:00pm 11.6 2.1 6.5 71 2.4 NW 46 65 25 35 1003.6 1003.6 0.0
02/12:40pm 10.9 1.7 6.5 74 2.1 NW 44 63 24 34 1004.1 1004.1 0.0
02/12:30pm 10.9 1.4 6.6 75 2.0 NW 46 57 25 31 1004.3 1004.3 0.0
02/12:00pm 10.7 0.4 6.5 75 2.0 NW 50 69 27 37 1005.1 1005.1 0.0
02/11:41am 10.9 1.3 6.3 73 2.2 NW 46 67 25 36 1005.6 1005.6 0.0
02/11:30am 10.9 1.7 6.3 73 2.2 NW 44 61 24 33 1005.8 1005.8 0.0
02/11:15am 10.6 1.4 6.2 74 2.0 NW 44 63 24 34 1006.1 1006.1 0.0
02/11:00am 11.2 2.6 6.7 74 2.1 NW 41 54 22 29 1006.3 1006.3 0.0
02/10:30am 10.8 1.8 6.4 74 2.1 NW 43 56 23 30 1006.8 1006.8 0.0
02/10:05am 10.8 2.2 6.7 76 1.9 NW 41 59 22 32 1007.1 1007.1 0.0
02/10:00am 10.8 2.6 6.6 75 2.0 NW 39 52 21 28 1007.2 1007.2 0.0
02/09:33am 10.5 3.0 6.3 75 2.0 NW 35 54 19 29 1007.6 1007.6 0.0
02/09:30am 10.4 2.9 6.2 75 2.0 NW 35 50 19 27 1007.6 1007.6 0.0
02/09:00am 10.2 2.0 6.5 78 1.7 NW 39 52 21 28 1008.0 1008.0 1.2
02/08:44am 10.5 2.6 6.3 75 2.0 NW 37 56 20 30 1008.1 1008.1 1.2
02/08:30am 10.3 2.6 5.5 72 2.2 NW 35 43 19 23 1008.3 1008.3 1.2
02/08:00am 10.0 2.8 5.8 75 1.9 NW 33 48 18 26 1008.5 1008.5 1.2
02/07:30am 9.5 2.5 5.9 78 1.7 NW 32 44 17 24 1008.6 1008.6 1.2
02/07:19am 9.4 3.2 6.3 81 1.4 WNW 28 44 15 24 1008.6 1008.6 1.2
02/07:07am 9.0 2.2 6.8 86 1.0 WNW 32 41 17 22 1008.8 1008.8 1.2
02/07:00am 9.2 2.2 6.8 85 1.1 W 33 46 18 25 1008.8 1008.8 1.0
02/06:30am 8.6 3.3 6.6 87 0.9 NW 24 32 13 17 1008.8 1008.8 1.0
02/06:00am 8.6 2.5 6.6 87 0.9 NW 28 37 15 20 1009.1 1009.1 1.0
02/05:30am 8.6 2.5 6.7 88 0.9 WNW 28 39 15 21 1009.4 1009.5 1.0
02/05:00am 8.6 2.1 6.6 87 0.9 WNW 30 44 16 24 1009.7 1009.8 1.0
02/04:49am 8.6 3.8 7.2 91 0.7 WNW 22 32 12 17 1009.9 1010.0 1.0
02/04:34am 8.5 2.4 6.5 87 0.9 WNW 28 52 15 28 1010.1 1010.2 0.8
02/04:32am 8.6 2.5 6.4 86 1.0 WNW 28 52 15 28 1010.1 1010.2 0.8
02/04:30am 8.7 2.9 6.2 84 1.1 WNW 26 52 14 28 1010.2 1010.3 0.8
02/04:00am 9.2 2.7 6.3 82 1.3 WNW 30 39 16 21 1010.2 1010.3 0.2
02/03:30am 8.5 2.4 6.5 87 0.9 W 28 39 15 21 1010.6 1010.7 0.2
02/03:00am 8.5 3.5 6.3 86 1.0 WNW 22 32 12 17 1010.9 1011.0 0.0
02/02:30am 9.9 3.4 4.5 69 2.4 WNW 28 39 15 21 1011.2 1011.3 0.0
02/02:00am 10.0 3.2 3.3 63 2.9 WNW 28 37 15 20 1011.5 1011.6 0.0
02/01:30am 9.8 2.3 3.3 64 2.8 WNW 32 41 17 22 1011.7 1011.8 0.0
02/01:00am 9.8 2.9 4.6 70 2.3 W 30 37 16 20 1011.8 1011.9 0.0
02/12:30am 9.7 2.1 4.1 68 2.5 WNW 33 43 18 23 1012.1 1012.2 0.0
02/12:00am 9.0 2.9 5.0 76 1.8 WNW 26 39 14 21 1012.2 1012.3 0.0
 
Date/Time
EST
Temp
°C
App
Temp
°C
Dew
Point
Rel
Hum
%
Delta-T
°C
Wind Press
QNH
hPa
Press
MSL
hPa
Rain
since 9 am
mm
Dir
 
Spd
km/h
Gust
km/h
Spd
kts
Gust
kts
01/11:39pm 9.9 3.1 4.9 71 2.2 WNW 30 50 16 27 1012.5 1012.6 0.0
01/11:30pm 9.7 3.2 4.7 71 2.2 WNW 28 37 15 20 1012.5 1012.6 0.0
01/11:00pm 10.1 2.8 4.7 69 2.4 WNW 32 39 17 21 1012.7 1012.8 0.0
01/10:30pm 9.7 3.6 4.7 71 2.2 WNW 26 33 14 18 1013.0 1013.1 0.0
01/10:00pm 9.5 2.5 4.1 69 2.4 WNW 30 39 16 21 1012.9 1013.0 0.0
01/09:30pm 9.5 1.8 3.3 65 2.7 W 33 44 18 24 1013.0 1013.1 0.0
01/09:00pm 9.3 0.1 3.5 67 2.5 W 41 56 22 30 1012.6 1012.7 0.0
01/08:47pm 9.7 1.0 4.1 68 2.5 W 39 57 21 31 1012.8 1012.9 0.0
01/08:30pm 9.5 1.9 3.7 67 2.5 W 33 48 18 26 1012.5 1012.6 0.0
01/08:00pm 9.5 1.7 3.0 64 2.8 W 33 48 18 26 1012.2 1012.3 0.0
01/07:35pm 9.4 1.3 3.4 66 2.6 W 35 54 19 29 1012.6 1012.7 0.0
01/07:30pm 9.6 1.5 3.1 64 2.8 W 35 48 19 26 1012.5 1012.6 0.0
01/07:00pm 9.6 1.9 3.4 65 2.7 W 33 44 18 24 1012.4 1012.5 0.0
01/06:30pm 9.6 1.4 2.5 61 3.0 W 35 43 19 23 1012.1 1012.2 0.0
01/06:00pm 9.7 -0.2 1.6 57 3.4 W 43 54 23 29 1011.8 1011.9 0.0
01/05:30pm 9.6 1.2 3.8 67 2.5 W 37 50 20 27 1011.6 1011.7 0.0
01/05:00pm 9.8 -0.1 1.7 57 3.4 W 43 52 23 28 1010.9 1011.0 0.0
01/04:30pm 9.9 0.3 3.6 65 2.7 WSW 43 50 23 27 1010.9 1011.0 0.0
01/04:00pm 10.3 0.6 2.7 59 3.3 W 43 56 23 30 1010.6 1010.7 0.0
01/03:30pm 10.4 0.7 3.9 64 2.9 W 44 54 24 29 1010.4 1010.5 0.0
01/03:00pm 10.6 1.9 3.9 63 3.0 W 39 48 21 26 1010.2 1010.3 0.0
01/02:30pm 11.0 1.3 3.8 61 3.2 WSW 44 54 24 29 1009.7 1009.8 0.0
01/02:00pm 10.7 1.0 4.0 63 3.0 WSW 44 54 24 29 1009.7 1009.8 0.0
01/01:30pm 10.4 0.7 3.7 63 2.9 WSW 44 57 24 31 1009.4 1009.5 0.0
01/01:00pm 10.6 -1.2 2.7 58 3.4 WSW 54 63 29 34 1008.9 1008.9 0.0
01/12:30pm 10.8 -0.6 3.1 59 3.3 WSW 52 65 28 35 1008.8 1008.8 0.0
01/12:00pm 10.8 -0.3 4.5 65 2.8 WSW 52 63 28 34 1008.9 1008.9 0.0
01/11:30am 10.4 -1.0 2.7 59 3.3 WSW 52 61 28 33 1008.7 1008.7 0.0
01/11:00am 10.0 -1.5 4.6 69 2.4 WSW 54 65 29 35 1008.6 1008.6 0.0
01/10:40am 10.2 -0.4 5.0 70 2.3 W 50 69 27 37 1008.0 1008.0 0.0
01/10:30am 10.3 0.1 5.3 71 2.3 W 48 59 26 32 1007.8 1007.8 0.0
01/10:00am 10.1 0.6 4.9 70 2.3 W 44 59 24 32 1007.3 1007.3 0.0
01/09:34am 9.8 0.8 6.3 79 1.6 W 43 52 23 28 1006.9 1006.9 0.0
01/09:30am 9.8 0.8 6.5 80 1.5 WSW 43 56 23 30 1006.8 1006.8 0.0
01/09:04am 9.7 0.5 7.8 88 0.9 WSW 46 56 25 30 1006.2 1006.2 0.0
01/09:01am 9.6 0.4 8.0 90 0.8 WSW 46 56 25 30 1006.0 1006.0 0.0
01/09:00am 9.6 0.8 8.0 90 0.8 WSW 44 54 24 29 1006.0 1006.0 6.6
01/08:48am 9.3 1.5 8.4 94 0.4 W 39 48 21 26 1005.8 1005.8 6.4
01/08:30am 9.0 0.8 8.2 95 0.4 W 41 69 22 37 1005.5 1005.5 6.4
01/08:23am 10.4 2.6 9.6 95 0.4 NW 41 69 22 37 1005.2 1005.2 5.2
01/08:08am 10.1 4.6 9.3 95 0.4 NW 28 48 15 26 1004.6 1004.6 4.8
01/08:00am 10.0 4.1 9.2 95 0.4 NW 30 41 16 22 1004.7 1004.7 4.4
01/07:57am 10.0 4.1 9.2 95 0.4 NNW 30 48 16 26 1004.7 1004.7 4.2
01/07:33am 10.1 5.4 9.3 95 0.4 NNW 24 39 13 21 1004.3 1004.3 2.8
01/07:30am 10.1 5.4 9.3 95 0.4 NNW 24 39 13 21 1004.4 1004.4 2.8
01/07:28am 10.2 6.0 9.6 96 0.3 NNW 22 33 12 18 1004.3 1004.3 2.8
01/07:00am 10.2 4.7 9.0 92 0.6 NNW 28 46 15 25 1004.2 1004.2 2.0
01/06:51am 10.3 4.4 7.7 84 1.2 NNW 28 46 15 25 1004.2 1004.2 1.4
01/06:30am 10.5 4.2 7.2 80 1.6 NNW 30 41 16 22 1004.0 1004.0 0.8
01/06:17am 10.4 4.0 6.9 79 1.7 N 30 56 16 30 1004.0 1004.0 0.6
01/06:00am 10.2 4.4 6.4 77 1.8 N 26 39 14 21 1004.3 1004.3 0.4
01/05:30am 10.5 4.6 5.9 73 2.1 N 26 41 14 22 1004.6 1004.6 0.0
01/05:00am 11.1 4.2 4.8 65 2.9 NNW 30 48 16 26 1005.0 1005.0 0.0
01/04:55am 11.1 4.7 5.0 66 2.8 NNW 28 48 15 26 1005.1 1005.1 0.0
01/04:30am 11.1 5.3 4.6 64 2.9 NNW 24 37 13 20 1005.3 1005.3 0.0
01/04:00am 11.2 4.7 4.9 65 2.9 N 28 43 15 23 1006.1 1006.1 0.0
01/03:30am 10.8 6.2 6.6 75 2.0 N 20 30 11 16 1006.8 1006.8 0.0
01/03:00am 10.6 5.7 6.9 78 1.8 NNW 22 32 12 17 1007.5 1007.5 0.0
01/02:30am 10.4 5.4 6.5 77 1.8 NNW 22 32 12 17 1008.7 1008.8 0.0
01/02:00am 10.3 6.3 6.6 78 1.7 NNW 17 24 9 13 1009.2 1009.3 0.0
01/01:30am 10.2 6.5 6.5 78 1.7 NNW 15 19 8 10 1010.1 1010.2 0.0
01/01:00am 9.8 6.7 5.6 75 1.9 NNW 11 15 6 8 1010.5 1010.6 0.0
01/12:30am 9.8 5.1 5.2 73 2.1 NNW 19 33 10 18 1010.7 1010.8 0.0
01/12:00am 9.7 4.4 4.9 72 2.2 N 22 32 12 17 1011.1 1011.2 0.0
 
Date/Time
EST
Temp
°C
App
Temp
°C
Dew
Point
Rel
Hum
%
Delta-T
°C
Wind Press
QNH
hPa
Press
MSL
hPa
Rain
since 9 am
mm
Dir
 
Spd
km/h
Gust
km/h
Spd
kts
Gust
kts
31/11:30pm 9.4 5.3 4.6 72 2.1 NNW 15 30 8 16 1012.2 1012.3 0.0
31/11:00pm 9.2 4.8 4.6 73 2.0 N 17 24 9 13 1012.7 1012.8 0.0
31/10:30pm 9.6 4.7 4.2 69 2.4 N 19 28 10 15 1013.1 1013.2 0.0
31/10:00pm 9.0 5.3 4.4 73 2.0 NNE 13 19 7 10 1013.5 1013.6 0.0
31/09:30pm 8.2 4.8 4.0 75 1.8 N 11 17 6 9 1014.3 1014.4 0.0
31/09:00pm 8.3 4.9 3.8 73 1.9 N 11 17 6 9 1014.6 1014.7 0.0
31/08:30pm 8.1 4.5 2.8 69 2.2 NNW 11 15 6 8 1014.9 1015.0 0.0
31/08:00pm 8.5 4.1 2.7 67 2.4 NW 15 20 8 11 1015.0 1015.1 0.0
31/07:30pm 8.8 4.2 3.8 71 2.2 NW 17 26 9 14 1015.2 1015.3 0.0
31/07:00pm 9.1 4.9 5.7 79 1.5 NW 17 28 9 15 1015.2 1015.3 0.0
31/06:30pm 9.4 6.0 5.9 79 1.6 NNW 13 19 7 10 1015.4 1015.5 0.0
31/06:00pm 9.1 6.0 5.7 79 1.5 N 11 13 6 7 1015.1 1015.2 0.0
31/05:30pm 9.0 5.9 5.7 80 1.5 NNW 11 13 6 7 1015.0 1015.1 0.0
31/05:00pm 9.5 5.0 6.0 79 1.6 WNW 19 24 10 13 1015.2 1015.3 0.0
31/04:30pm 10.2 5.4 5.8 74 2.0 NW 20 30 11 16 1015.3 1015.4 0.0
31/04:00pm 10.2 5.7 6.0 75 1.9 NW 19 26 10 14 1015.6 1015.7 0.0
31/03:30pm 10.2 5.4 5.4 72 2.2 WNW 20 30 11 16 1015.9 1016.0 0.0
31/03:00pm 10.5 5.6 4.9 68 2.5 WNW 20 28 11 15 1016.2 1016.3 0.0
31/02:30pm 11.3 4.9 5.2 66 2.8 W 28 32 15 17 1016.3 1016.4 0.0
31/02:00pm 10.8 4.6 6.2 73 2.1 W 28 35 15 19 1016.5 1016.6 0.0
31/01:30pm 11.0 5.7 4.9 66 2.8 W 22 30 12 16 1016.7 1016.8 0.0
31/01:00pm 10.8 6.5 5.1 68 2.6 WNW 17 19 9 10 1017.1 1017.2 0.0
31/12:30pm 10.6 5.6 4.7 67 2.7 WNW 20 28 11 15 1017.6 1017.7 0.0
31/12:00pm 10.1 5.9 5.9 75 1.9 W 17 22 9 12 1018.1 1018.1 0.0
31/11:30am 10.3 4.5 6.1 75 1.9 WSW 26 32 14 17 1018.6 1018.6 0.0
31/11:00am 9.5 2.3 6.0 79 1.6 W 33 48 18 26 1018.9 1018.9 0.0
31/10:55am 9.5 3.2 5.5 76 1.8 W 28 48 15 26 1018.8 1018.8 0.0
31/10:30am 10.1 3.8 4.0 66 2.7 W 26 30 14 16 1018.5 1018.5 0.0
31/10:00am 9.4 3.0 5.2 75 1.9 WSW 28 41 15 22 1018.1 1018.1 0.0
31/09:30am 9.7 2.2 3.7 66 2.6 WSW 32 35 17 19 1018.0 1018.0 0.0
31/09:00am 9.6 2.9 3.8 67 2.5 WSW 28 32 15 17 1017.8 1017.9 2.2
31/08:30am 9.0 1.6 3.8 70 2.3 WSW 32 37 17 20 1017.4 1017.5 2.2
31/08:00am 8.7 0.6 3.3 69 2.3 WSW 35 44 19 24 1017.2 1017.3 2.2
31/07:30am 8.6 0.5 3.4 70 2.2 WSW 35 43 19 23 1016.8 1016.9 2.2
31/07:00am 8.6 -0.3 3.0 68 2.4 WSW 39 50 21 27 1016.4 1016.5 2.2
31/06:30am 8.2 -0.8 2.7 68 2.3 WSW 39 50 21 27 1015.9 1016.0 2.2
31/06:00am 8.4 -1.4 2.4 66 2.5 WSW 43 54 23 29 1015.6 1015.7 2.2
31/05:30am 8.5 -1.4 2.9 68 2.4 WSW 44 57 24 31 1015.0 1015.1 2.2
31/05:00am 8.7 -1.2 2.7 66 2.5 WSW 44 54 24 29 1014.7 1014.8 2.2
31/04:30am 8.7 -1.5 3.3 69 2.3 WSW 46 59 25 32 1014.4 1014.5 2.2
31/04:00am 8.7 -2.2 3.5 70 2.2 WSW 50 57 27 31 1013.9 1014.0 2.2
31/03:30am 8.8 -1.4 3.0 67 2.5 WSW 46 59 25 32 1013.5 1013.6 2.2
31/03:00am 9.1 -1.7 4.1 71 2.2 WSW 50 63 27 34 1013.2 1013.3 2.2
31/02:30am 9.2 -2.4 4.0 70 2.3 WSW 54 63 29 34 1012.5 1012.6 2.2
31/02:00am 9.3 -2.2 4.5 72 2.1 WSW 54 63 29 34 1012.3 1012.4 2.2
31/01:30am 9.5 -2.5 3.9 68 2.5 WSW 56 70 30 38 1011.6 1011.7 2.2
31/01:00am 9.8 -2.3 4.4 69 2.4 WSW 57 72 31 39 1011.1 1011.2 2.2
31/12:30am 10.0 -1.8 5.0 71 2.3 WSW 56 67 30 36 1010.1 1010.2 2.2
31/12:00am 10.1 -1.1 5.9 75 1.9 W 54 67 29 36 1009.5 1009.6 2.2
 
Date/Time
EST
Temp
°C
App
Temp
°C
Dew
Point
Rel
Hum
%
Delta-T
°C
Wind Press
QNH
hPa
Press
MSL
hPa
Rain
since 9 am
mm
Dir
 
Spd
km/h
Gust
km/h
Spd
kts
Gust
kts
30/11:38pm 10.3 0.4 6.6 78 1.7 W 48 72 26 39 1009.4 1009.5 2.2
30/11:30pm 10.1 1.3 7.2 82 1.4 W 43 59 23 32 1009.4 1009.5 2.2
30/11:14pm 9.5 0.7 7.1 85 1.1 W 43 57 23 31 1009.4 1009.5 2.2
30/11:06pm 9.2 0.9 7.6 90 0.8 W 41 59 22 32 1009.3 1009.4 2.2
30/11:00pm 9.1 -0.2 7.5 90 0.8 W 46 59 25 32 1009.3 1009.4 2.2
30/10:44pm 9.3 0.4 7.7 90 0.8 WNW 44 61 24 33 1009.3 1009.4 2.0
30/10:30pm 9.8 1.1 7.7 87 1.0 W 43 57 23 31 1009.3 1009.4 1.8
30/10:28pm 9.8 1.1 7.6 86 1.0 W 43 56 23 30 1009.3 1009.4 1.8
30/10:25pm 9.8 0.5 7.4 85 1.1 W 46 59 25 32 1009.3 1009.4 1.8

Other Formats:

Comma delimited format used in spreadsheet applications
http://www.bom.gov.au/fwo/IDT60801/IDT60801.94980.axf

JavaScript Object Notation format (JSON) in row-major order
http://www.bom.gov.au/fwo/IDT60801/IDT60801.94980.json